createdAt,value
2024-03-26T00:00:02.051Z,977.52
2024-03-26T00:01:02.069Z,977.47
2024-03-26T00:02:03.048Z,977.47
2024-03-26T00:03:02.027Z,977.45
2024-03-26T00:04:02.019Z,977.48
2024-03-26T00:05:01.994Z,977.53
2024-03-26T00:06:02.998Z,977.54
2024-03-26T00:07:02.028Z,977.46
2024-03-26T00:08:01.945Z,977.40
2024-03-26T00:09:01.949Z,977.42
2024-03-26T00:10:01.943Z,977.42
2024-03-26T00:11:01.996Z,977.35
2024-03-26T00:12:01.954Z,977.38
2024-03-26T00:13:01.950Z,977.37
2024-03-26T00:14:01.923Z,977.33
2024-03-26T00:15:01.945Z,977.36
2024-03-26T00:16:01.927Z,977.34
2024-03-26T00:17:01.935Z,977.32
2024-03-26T00:18:01.860Z,977.34
2024-03-26T00:19:01.864Z,977.29
2024-03-26T00:20:01.868Z,977.30
2024-03-26T00:21:01.824Z,977.26
2024-03-26T00:22:01.872Z,977.34
2024-03-26T00:23:01.825Z,977.31
2024-03-26T00:24:01.832Z,977.28
2024-03-26T00:25:01.771Z,977.32
2024-03-26T00:26:01.778Z,977.30
2024-03-26T00:27:01.759Z,977.24
2024-03-26T00:28:01.755Z,977.27
2024-03-26T00:29:01.747Z,977.28
2024-03-26T00:30:01.746Z,977.28
2024-03-26T00:31:01.715Z,977.27
2024-03-26T00:32:01.695Z,977.18
2024-03-26T00:33:01.736Z,977.23
2024-03-26T00:34:01.720Z,977.22
2024-03-26T00:35:01.697Z,977.14
2024-03-26T00:36:01.697Z,977.21
2024-03-26T00:37:01.687Z,977.22
2024-03-26T00:38:01.655Z,977.15
2024-03-26T00:39:01.618Z,977.20
2024-03-26T00:40:01.644Z,977.19
2024-03-26T00:41:01.611Z,977.15
2024-03-26T00:42:01.641Z,977.07
2024-03-26T00:43:01.602Z,977.07
2024-03-26T00:44:01.587Z,977.13
2024-03-26T00:45:01.548Z,977.08
2024-03-26T00:46:02.572Z,977.09
2024-03-26T00:47:01.567Z,977.03
2024-03-26T00:48:02.422Z,977.07
2024-03-26T00:49:01.520Z,977.08
2024-03-26T00:50:01.545Z,977.09
2024-03-26T00:51:01.514Z,977.05
2024-03-26T00:52:01.485Z,977.06
2024-03-26T00:53:01.501Z,977.02
2024-03-26T00:54:01.492Z,977.04
2024-03-26T00:55:01.507Z,977.03
2024-03-26T00:56:02.083Z,976.97
2024-03-26T00:57:01.444Z,976.97
2024-03-26T00:58:01.407Z,976.89
2024-03-26T00:59:01.492Z,977.03
2024-03-26T01:00:01.412Z,976.98
2024-03-26T01:01:01.404Z,976.96
2024-03-26T01:02:01.398Z,976.95
2024-03-26T01:03:01.417Z,976.94
2024-03-26T01:04:01.514Z,976.94
2024-03-26T01:05:01.390Z,976.93
2024-03-26T01:06:01.351Z,976.94
2024-03-26T01:07:01.342Z,976.92
2024-03-26T01:08:01.343Z,976.92
2024-03-26T01:09:01.358Z,976.95
2024-03-26T01:10:01.328Z,976.94
2024-03-26T01:11:01.325Z,976.93
2024-03-26T01:12:01.364Z,976.92
2024-03-26T01:13:01.313Z,976.88
2024-03-26T01:14:01.358Z,976.82
2024-03-26T01:15:01.247Z,976.85
2024-03-26T01:16:01.299Z,976.88
2024-03-26T01:17:01.215Z,976.88
2024-03-26T01:18:01.223Z,976.86
2024-03-26T01:19:01.413Z,976.86
2024-03-26T01:20:01.234Z,976.77
2024-03-26T01:21:01.187Z,976.78
2024-03-26T01:22:01.237Z,976.79
2024-03-26T01:23:01.204Z,976.80
2024-03-26T01:24:01.185Z,976.82
2024-03-26T01:25:01.162Z,976.75
2024-03-26T01:26:01.171Z,976.81
2024-03-26T01:27:01.194Z,976.70
2024-03-26T01:28:01.089Z,976.70
2024-03-26T01:29:01.128Z,976.79
2024-03-26T01:30:01.555Z,976.73
2024-03-26T01:31:01.992Z,976.76
2024-03-26T01:32:02.082Z,976.73
2024-03-26T01:33:01.061Z,976.70
2024-03-26T01:34:01.172Z,976.73
2024-03-26T01:35:01.050Z,976.64
2024-03-26T01:36:01.059Z,976.65
2024-03-26T01:37:01.051Z,976.67
2024-03-26T01:38:01.016Z,976.61
2024-03-26T01:39:01.056Z,976.60
2024-03-26T01:40:01.097Z,976.61
2024-03-26T01:41:01.035Z,976.54
2024-03-26T01:42:01.043Z,976.59
2024-03-26T01:43:01.034Z,976.56
2024-03-26T01:44:01.000Z,976.50
2024-03-26T01:45:01.009Z,976.55
2024-03-26T01:46:00.948Z,976.58
2024-03-26T01:47:00.934Z,976.59
2024-03-26T01:48:00.938Z,976.54
2024-03-26T01:49:00.918Z,976.57
2024-03-26T01:50:00.925Z,976.57
2024-03-26T01:51:00.874Z,976.62
2024-03-26T01:52:00.878Z,976.56
2024-03-26T01:53:00.859Z,976.65
2024-03-26T01:54:00.849Z,976.56
2024-03-26T01:55:00.831Z,976.54
2024-03-26T01:56:00.806Z,976.57
2024-03-26T01:57:00.824Z,976.52
2024-03-26T01:58:00.820Z,976.53
2024-03-26T01:59:00.833Z,976.55
2024-03-26T02:00:00.848Z,976.56
2024-03-26T02:01:00.741Z,976.50
2024-03-26T02:02:01.820Z,976.53
2024-03-26T02:03:00.922Z,976.53
2024-03-26T02:04:00.784Z,976.50
2024-03-26T02:05:00.769Z,976.51
2024-03-26T02:06:00.716Z,976.43
2024-03-26T02:07:00.705Z,976.46
2024-03-26T02:08:00.685Z,976.44
2024-03-26T02:09:00.714Z,976.41
2024-03-26T02:10:00.717Z,976.42
2024-03-26T02:11:00.655Z,976.41
2024-03-26T02:12:00.670Z,976.44
2024-03-26T02:13:00.660Z,976.39
2024-03-26T02:14:00.622Z,976.45
2024-03-26T02:15:00.607Z,976.44
2024-03-26T02:16:00.660Z,976.37
2024-03-26T02:17:00.604Z,976.31
2024-03-26T02:18:00.589Z,976.32
2024-03-26T02:19:00.593Z,976.31
2024-03-26T02:20:00.545Z,976.23
2024-03-26T02:21:00.563Z,976.23
2024-03-26T02:22:00.562Z,976.24
2024-03-26T02:23:00.525Z,976.25
2024-03-26T02:24:00.512Z,976.20
2024-03-26T02:25:00.525Z,976.17
2024-03-26T02:26:00.519Z,976.13
2024-03-26T02:27:00.521Z,976.15
2024-03-26T02:28:00.490Z,976.12
2024-03-26T02:29:00.456Z,976.08
2024-03-26T02:30:00.461Z,976.01
2024-03-26T02:31:00.506Z,976.08
2024-03-26T02:32:00.443Z,975.95
2024-03-26T02:33:01.419Z,975.97
2024-03-26T02:34:00.413Z,976.00
2024-03-26T02:35:00.412Z,975.99
2024-03-26T02:36:00.430Z,975.99
2024-03-26T02:37:00.405Z,975.94
2024-03-26T02:38:00.389Z,976.01
2024-03-26T02:39:00.412Z,975.93
2024-03-26T02:40:00.447Z,975.95
2024-03-26T02:41:00.375Z,975.94
2024-03-26T02:42:00.309Z,975.93
2024-03-26T02:43:00.343Z,975.87
2024-03-26T02:44:00.311Z,975.88
2024-03-26T02:45:00.299Z,975.79
2024-03-26T02:46:00.289Z,975.80
2024-03-26T02:47:00.288Z,975.77
2024-03-26T02:48:00.243Z,975.80
2024-03-26T02:49:01.235Z,975.72
2024-03-26T02:50:00.240Z,975.76
2024-03-26T02:51:00.211Z,975.71
2024-03-26T02:52:00.245Z,975.70
2024-03-26T02:53:00.427Z,975.62
2024-03-26T02:54:00.179Z,975.64
2024-03-26T02:55:00.206Z,975.61
2024-03-26T02:56:00.170Z,975.64
2024-03-26T02:57:00.159Z,975.60
2024-03-26T02:58:00.196Z,975.55
2024-03-26T02:59:00.156Z,975.57
2024-03-26T03:00:00.160Z,975.51
2024-03-26T03:01:00.145Z,975.50
2024-03-26T03:02:00.150Z,975.48
2024-03-26T03:03:00.103Z,975.45
2024-03-26T03:04:00.111Z,975.50
2024-03-26T03:05:00.085Z,975.45
2024-03-26T03:06:00.094Z,975.40
2024-03-26T03:07:00.072Z,975.44
2024-03-26T03:08:00.068Z,975.44
2024-03-26T03:09:00.087Z,975.45
2024-03-26T03:10:00.029Z,975.44
2024-03-26T03:10:59.996Z,975.43
2024-03-26T03:11:59.995Z,975.46
2024-03-26T03:12:59.979Z,975.38
2024-03-26T03:14:00.137Z,975.44
2024-03-26T03:14:59.980Z,975.37
2024-03-26T03:15:59.971Z,975.36
2024-03-26T03:16:59.956Z,975.30
2024-03-26T03:17:59.939Z,975.35
2024-03-26T03:19:00.210Z,975.32
2024-03-26T03:19:59.925Z,975.28
2024-03-26T03:20:59.882Z,975.30
2024-03-26T03:21:59.896Z,975.19
2024-03-26T03:22:59.889Z,975.30
2024-03-26T03:23:59.920Z,975.24
2024-03-26T03:24:59.889Z,975.28
2024-03-26T03:26:00.984Z,975.18
2024-03-26T03:26:59.842Z,975.17
2024-03-26T03:27:59.862Z,975.12
2024-03-26T03:28:59.808Z,975.16
2024-03-26T03:29:59.830Z,975.11
2024-03-26T03:30:59.802Z,975.11
2024-03-26T03:31:59.804Z,975.10
2024-03-26T03:32:59.800Z,975.08
2024-03-26T03:33:59.763Z,975.05
2024-03-26T03:34:59.774Z,975.02
2024-03-26T03:35:59.734Z,975.02
2024-03-26T03:36:59.752Z,975.04
2024-03-26T03:37:59.734Z,975.07
2024-03-26T03:38:59.751Z,974.99
2024-03-26T03:39:59.768Z,975.04
2024-03-26T03:40:59.706Z,975.03
2024-03-26T03:41:59.677Z,975.01
2024-03-26T03:42:59.677Z,975.05
2024-03-26T03:43:59.656Z,975.02
2024-03-26T03:44:59.918Z,974.99
2024-03-26T03:45:59.652Z,974.99
2024-03-26T03:46:59.641Z,974.96
2024-03-26T03:47:59.620Z,974.92
2024-03-26T03:48:59.646Z,974.95
2024-03-26T03:49:59.601Z,974.91
2024-03-26T03:51:01.072Z,974.89
2024-03-26T03:51:59.597Z,974.90
2024-03-26T03:53:00.454Z,974.90
2024-03-26T03:53:59.566Z,974.91
2024-03-26T03:54:59.576Z,974.91
2024-03-26T03:55:59.567Z,974.89
2024-03-26T03:56:59.606Z,974.85
2024-03-26T03:57:59.527Z,974.79
2024-03-26T03:58:59.515Z,974.83
2024-03-26T03:59:59.485Z,974.81
2024-03-26T04:00:59.521Z,974.85
2024-03-26T04:01:59.498Z,974.86
2024-03-26T04:02:59.496Z,974.86
2024-03-26T04:03:59.444Z,974.85
2024-03-26T04:04:59.434Z,974.76
2024-03-26T04:05:59.414Z,974.73
2024-03-26T04:06:59.451Z,974.72
2024-03-26T04:07:59.397Z,974.80
2024-03-26T04:08:59.466Z,974.76
2024-03-26T04:09:59.422Z,974.72
2024-03-26T04:10:59.373Z,974.74
2024-03-26T04:11:59.385Z,974.75
2024-03-26T04:12:59.358Z,974.73
2024-03-26T04:13:59.365Z,974.76
2024-03-26T04:14:59.350Z,974.62
2024-03-26T04:15:59.354Z,974.66
2024-03-26T04:16:59.365Z,974.61
2024-03-26T04:17:59.333Z,974.62
2024-03-26T04:18:59.351Z,974.64
2024-03-26T04:19:59.302Z,974.65
2024-03-26T04:20:59.266Z,974.63
2024-03-26T04:21:59.296Z,974.64
2024-03-26T04:23:00.311Z,974.59
2024-03-26T04:23:59.276Z,974.56
2024-03-26T04:24:59.269Z,974.56
2024-03-26T04:25:59.223Z,974.46
2024-03-26T04:26:59.221Z,974.54
2024-03-26T04:27:59.246Z,974.49
2024-03-26T04:28:59.200Z,974.47
2024-03-26T04:29:59.198Z,974.51
2024-03-26T04:30:59.174Z,974.40
2024-03-26T04:31:59.203Z,974.49
2024-03-26T04:32:59.203Z,974.43
2024-03-26T04:33:59.154Z,974.47
2024-03-26T04:34:59.142Z,974.47
2024-03-26T04:35:59.134Z,974.46
2024-03-26T04:36:59.139Z,974.51
2024-03-26T04:37:59.159Z,974.43
2024-03-26T04:38:59.092Z,974.48
2024-03-26T04:39:59.112Z,974.48
2024-03-26T04:40:59.065Z,974.46
2024-03-26T04:41:59.056Z,974.37
2024-03-26T04:42:59.099Z,974.46
2024-03-26T04:43:59.043Z,974.41
2024-03-26T04:44:59.072Z,974.43
2024-03-26T04:45:59.024Z,974.36
2024-03-26T04:46:59.087Z,974.39
2024-03-26T04:47:59.014Z,974.43
2024-03-26T04:48:59.020Z,974.39
2024-03-26T04:49:59.015Z,974.37
2024-03-26T04:50:58.979Z,974.35
2024-03-26T04:51:59.930Z,974.34
2024-03-26T04:52:58.944Z,974.28
2024-03-26T04:53:58.955Z,974.37
2024-03-26T04:54:58.919Z,974.30
2024-03-26T04:55:58.925Z,974.29
2024-03-26T04:56:58.985Z,974.31
2024-03-26T04:57:58.888Z,974.33
2024-03-26T04:58:58.895Z,974.36
2024-03-26T04:59:58.868Z,974.36
2024-03-26T05:00:58.897Z,974.32
2024-03-26T05:01:58.869Z,974.33
2024-03-26T05:02:58.879Z,974.33
2024-03-26T05:03:58.888Z,974.29
2024-03-26T05:04:58.825Z,974.31
2024-03-26T05:05:58.794Z,974.30
2024-03-26T05:06:58.817Z,974.27
2024-03-26T05:07:58.789Z,974.25
2024-03-26T05:08:58.957Z,974.21
2024-03-26T05:09:58.800Z,974.19
2024-03-26T05:10:58.769Z,974.18
2024-03-26T05:11:58.776Z,974.17
2024-03-26T05:12:58.754Z,974.16
2024-03-26T05:13:58.734Z,974.25
2024-03-26T05:14:58.753Z,974.22
2024-03-26T05:15:58.740Z,974.22
2024-03-26T05:16:58.714Z,974.22
2024-03-26T05:17:59.165Z,974.17
2024-03-26T05:18:58.680Z,974.22
2024-03-26T05:19:58.683Z,974.20
2024-03-26T05:20:58.668Z,974.15
2024-03-26T05:21:58.703Z,974.14
2024-03-26T05:22:59.520Z,974.18
2024-03-26T05:23:58.638Z,974.17
2024-03-26T05:24:58.652Z,974.12
2024-03-26T05:25:58.602Z,974.13
2024-03-26T05:26:58.616Z,974.20
2024-03-26T05:27:58.569Z,974.10
2024-03-26T05:28:58.578Z,974.13
2024-03-26T05:29:58.594Z,974.14
2024-03-26T05:30:58.546Z,974.13
2024-03-26T05:31:58.525Z,974.14
2024-03-26T05:32:58.534Z,974.12
2024-03-26T05:33:58.534Z,974.18
2024-03-26T05:34:58.558Z,974.16
2024-03-26T05:35:58.504Z,974.15
2024-03-26T05:36:58.486Z,974.15
2024-03-26T05:37:58.498Z,974.14
2024-03-26T05:38:58.458Z,974.07
2024-03-26T05:39:58.453Z,974.10
2024-03-26T05:40:58.470Z,974.06
2024-03-26T05:41:58.455Z,974.09
2024-03-26T05:42:58.443Z,974.13
2024-03-26T05:43:58.403Z,974.07
2024-03-26T05:44:58.397Z,974.10
2024-03-26T05:45:58.399Z,974.09
2024-03-26T05:46:58.383Z,974.01
2024-03-26T05:47:58.351Z,973.98
2024-03-26T05:48:58.363Z,973.98
2024-03-26T05:49:58.347Z,974.00
2024-03-26T05:50:59.385Z,973.99
2024-03-26T05:51:58.356Z,973.95
2024-03-26T05:52:58.366Z,973.90
2024-03-26T05:53:58.312Z,973.93
2024-03-26T05:54:58.306Z,974.04
2024-03-26T05:55:58.283Z,973.98
2024-03-26T05:56:58.301Z,973.98
2024-03-26T05:57:58.274Z,973.94
2024-03-26T05:58:58.927Z,973.89
2024-03-26T05:59:58.242Z,973.91
2024-03-26T06:00:58.235Z,973.87
2024-03-26T06:01:58.219Z,973.85
2024-03-26T06:02:58.241Z,973.88
2024-03-26T06:03:59.788Z,973.86
2024-03-26T06:04:59.179Z,973.85
2024-03-26T06:05:58.188Z,973.77
2024-03-26T06:06:58.199Z,973.78
2024-03-26T06:07:58.155Z,973.82
2024-03-26T06:08:58.134Z,973.75
2024-03-26T06:09:58.146Z,973.71
2024-03-26T06:10:58.106Z,973.72
2024-03-26T06:11:58.148Z,973.77
2024-03-26T06:12:58.088Z,973.70
2024-03-26T06:13:58.110Z,973.71
2024-03-26T06:14:58.103Z,973.74
2024-03-26T06:15:58.044Z,973.69
2024-03-26T06:16:58.158Z,973.75
2024-03-26T06:17:58.069Z,973.74
2024-03-26T06:18:58.008Z,973.72
2024-03-26T06:19:58.019Z,973.69
2024-03-26T06:20:58.016Z,973.72
2024-03-26T06:21:58.007Z,973.65
2024-03-26T06:22:58.042Z,973.66
2024-03-26T06:23:57.988Z,973.67
2024-03-26T06:24:57.954Z,973.76
2024-03-26T06:25:57.957Z,973.67
2024-03-26T06:26:57.943Z,973.65
2024-03-26T06:27:57.979Z,973.67
2024-03-26T06:28:57.942Z,973.72
2024-03-26T06:29:57.917Z,973.68
2024-03-26T06:30:57.894Z,973.64
2024-03-26T06:31:57.901Z,973.67
2024-03-26T06:32:57.929Z,973.65
2024-03-26T06:33:57.934Z,973.61
2024-03-26T06:34:57.868Z,973.57
2024-03-26T06:35:57.858Z,973.55
2024-03-26T06:36:57.831Z,973.59
2024-03-26T06:37:57.844Z,973.59
2024-03-26T06:38:57.850Z,973.54
2024-03-26T06:39:57.847Z,973.52
2024-03-26T06:40:58.282Z,973.52
2024-03-26T06:41:58.795Z,973.50
2024-03-26T06:42:57.807Z,973.45
2024-03-26T06:43:57.799Z,973.45
2024-03-26T06:44:57.785Z,973.54
2024-03-26T06:45:57.816Z,973.53
2024-03-26T06:46:57.752Z,973.53
2024-03-26T06:47:57.710Z,973.47
2024-03-26T06:48:57.696Z,973.56
2024-03-26T06:49:57.782Z,973.53
2024-03-26T06:50:57.721Z,973.48
2024-03-26T06:51:57.699Z,973.51
2024-03-26T06:52:57.654Z,973.58
2024-03-26T06:53:57.670Z,973.54
2024-03-26T06:54:57.645Z,973.57
2024-03-26T06:55:57.624Z,973.57
2024-03-26T06:56:57.664Z,973.51
2024-03-26T06:57:57.626Z,973.47
2024-03-26T06:58:57.659Z,973.54
2024-03-26T06:59:57.655Z,973.53
2024-03-26T07:00:57.582Z,973.52
2024-03-26T07:01:58.414Z,973.43
2024-03-26T07:02:57.580Z,973.50
2024-03-26T07:03:57.567Z,973.43
2024-03-26T07:04:57.525Z,973.36
2024-03-26T07:05:57.784Z,973.37
2024-03-26T07:06:57.498Z,973.33
2024-03-26T07:07:57.522Z,973.33
2024-03-26T07:08:57.565Z,973.34
2024-03-26T07:09:57.511Z,973.43
2024-03-26T07:10:57.530Z,973.38
2024-03-26T07:11:57.526Z,973.33
2024-03-26T07:12:58.997Z,973.35
2024-03-26T07:13:58.446Z,973.36
2024-03-26T07:14:57.470Z,973.39
2024-03-26T07:15:57.475Z,973.34
2024-03-26T07:16:57.412Z,973.38
2024-03-26T07:17:57.981Z,973.36
2024-03-26T07:18:57.386Z,973.34
2024-03-26T07:19:57.367Z,973.39
2024-03-26T07:20:57.465Z,973.32
2024-03-26T07:21:57.363Z,973.30
2024-03-26T07:22:57.317Z,973.28
2024-03-26T07:23:57.468Z,973.26
2024-03-26T07:24:57.324Z,973.30
2024-03-26T07:25:57.332Z,973.32
2024-03-26T07:26:57.336Z,973.32
2024-03-26T07:27:57.311Z,973.34
2024-03-26T07:28:57.279Z,973.36
2024-03-26T07:29:57.339Z,973.28
2024-03-26T07:30:57.250Z,973.32
2024-03-26T07:31:57.247Z,973.28
2024-03-26T07:32:57.313Z,973.23
2024-03-26T07:33:57.208Z,973.22
2024-03-26T07:34:57.266Z,973.22
2024-03-26T07:35:57.251Z,973.27
2024-03-26T07:36:57.232Z,973.27
2024-03-26T07:37:57.265Z,973.33
2024-03-26T07:38:57.171Z,973.34
2024-03-26T07:39:57.240Z,973.23
2024-03-26T07:40:57.198Z,973.22
2024-03-26T07:41:57.242Z,973.18
2024-03-26T07:42:58.438Z,973.11
2024-03-26T07:43:57.186Z,973.11
2024-03-26T07:44:57.120Z,973.10
2024-03-26T07:45:57.203Z,973.09
2024-03-26T07:46:57.095Z,973.09
2024-03-26T07:47:57.142Z,973.09
2024-03-26T07:48:57.120Z,973.08
2024-03-26T07:49:57.156Z,973.06
2024-03-26T07:50:57.125Z,973.07
2024-03-26T07:51:57.578Z,973.02
2024-03-26T07:52:58.068Z,973.00
2024-03-26T07:53:57.119Z,972.91
2024-03-26T07:54:57.055Z,973.03
2024-03-26T07:55:57.006Z,973.04
2024-03-26T07:56:57.077Z,973.03
2024-03-26T07:57:56.981Z,973.02
2024-03-26T07:58:57.005Z,972.98
2024-03-26T07:59:57.018Z,972.98
2024-03-26T08:00:56.918Z,973.07
2024-03-26T08:01:56.957Z,972.98
2024-03-26T08:02:56.921Z,972.93
2024-03-26T08:03:56.932Z,972.90
2024-03-26T08:04:56.890Z,972.96
2024-03-26T08:05:56.900Z,972.93
2024-03-26T08:06:56.859Z,972.96
2024-03-26T08:07:56.898Z,972.94
2024-03-26T08:08:56.873Z,972.92
2024-03-26T08:09:56.822Z,972.95
2024-03-26T08:10:56.817Z,972.85
2024-03-26T08:11:56.827Z,972.95
2024-03-26T08:12:56.869Z,972.95
2024-03-26T08:13:56.822Z,972.94
2024-03-26T08:14:56.828Z,972.96
2024-03-26T08:15:56.850Z,972.89
2024-03-26T08:16:56.768Z,972.99
2024-03-26T08:17:58.195Z,972.92
2024-03-26T08:18:56.802Z,972.85
2024-03-26T08:19:56.758Z,972.84
2024-03-26T08:20:56.725Z,972.84
2024-03-26T08:21:56.728Z,972.87
2024-03-26T08:22:56.714Z,972.78
2024-03-26T08:23:57.062Z,972.75
2024-03-26T08:24:58.656Z,972.72
2024-03-26T08:25:56.720Z,972.78
2024-03-26T08:26:56.848Z,972.79
2024-03-26T08:27:56.707Z,972.75
2024-03-26T08:28:56.634Z,972.70
2024-03-26T08:29:56.721Z,972.77
2024-03-26T08:30:56.855Z,972.76
2024-03-26T08:31:56.674Z,972.74
2024-03-26T08:32:56.614Z,972.77
2024-03-26T08:33:56.597Z,972.78
2024-03-26T08:34:56.549Z,972.80
2024-03-26T08:35:56.584Z,972.73
2024-03-26T08:36:56.518Z,972.74
2024-03-26T08:37:56.570Z,972.75
2024-03-26T08:38:56.574Z,972.66
2024-03-26T08:39:56.498Z,972.66
2024-03-26T08:40:57.392Z,972.62
2024-03-26T08:41:56.528Z,972.60
2024-03-26T08:42:56.461Z,972.63
2024-03-26T08:43:56.432Z,972.62
2024-03-26T08:44:56.578Z,972.62
2024-03-26T08:45:56.467Z,972.58
2024-03-26T08:46:56.438Z,972.57
2024-03-26T08:47:56.451Z,972.56
2024-03-26T08:48:56.401Z,972.54
2024-03-26T08:49:56.394Z,972.59
2024-03-26T08:50:56.437Z,972.53
2024-03-26T08:51:56.368Z,972.51
2024-03-26T08:52:56.366Z,972.54
2024-03-26T08:53:56.372Z,972.54
2024-03-26T08:54:56.342Z,972.55
2024-03-26T08:56:00.355Z,972.54
2024-03-26T08:56:57.341Z,972.52
2024-03-26T08:57:56.319Z,972.54
2024-03-26T08:58:56.306Z,972.54
2024-03-26T08:59:56.325Z,972.47
2024-03-26T09:00:56.325Z,972.54
2024-03-26T09:01:56.269Z,972.57
2024-03-26T09:02:56.300Z,972.51
2024-03-26T09:03:56.253Z,972.47
2024-03-26T09:04:56.236Z,972.47
2024-03-26T09:05:56.233Z,972.47
2024-03-26T09:06:56.210Z,972.47
2024-03-26T09:07:56.195Z,972.44
2024-03-26T09:08:56.179Z,972.40
2024-03-26T09:09:56.216Z,972.37
2024-03-26T09:10:56.157Z,972.29
2024-03-26T09:11:56.166Z,972.34
2024-03-26T09:12:56.140Z,972.36
2024-03-26T09:13:56.171Z,972.45
2024-03-26T09:14:56.211Z,972.43
2024-03-26T09:15:56.151Z,972.37
2024-03-26T09:16:56.106Z,972.39
2024-03-26T09:17:56.159Z,972.35
2024-03-26T09:19:00.389Z,972.40
2024-03-26T09:19:58.106Z,972.37
2024-03-26T09:20:56.096Z,972.38
2024-03-26T09:21:56.113Z,972.32
2024-03-26T09:22:56.041Z,972.25
2024-03-26T09:23:56.042Z,972.27
2024-03-26T09:24:56.044Z,972.20
2024-03-26T09:25:56.003Z,972.22
2024-03-26T09:26:56.083Z,972.19
2024-03-26T09:27:56.007Z,972.10
2024-03-26T09:28:55.987Z,972.09
2024-03-26T09:29:55.965Z,972.15
2024-03-26T09:30:55.980Z,972.13
2024-03-26T09:31:55.953Z,972.06
2024-03-26T09:32:55.983Z,972.11
2024-03-26T09:33:55.935Z,972.10
2024-03-26T09:34:55.927Z,972.03
2024-03-26T09:35:55.930Z,972.12
2024-03-26T09:36:55.972Z,972.12
2024-03-26T09:37:55.912Z,972.16
2024-03-26T09:39:06.561Z,972.18
2024-03-26T09:39:56.872Z,972.11
2024-03-26T09:40:55.866Z,972.08
2024-03-26T09:41:55.905Z,972.10
2024-03-26T09:42:55.824Z,972.08
2024-03-26T09:43:55.853Z,972.03
2024-03-26T09:45:05.204Z,972.05
2024-03-26T09:45:56.810Z,971.98
2024-03-26T09:46:55.793Z,972.01
2024-03-26T09:47:55.850Z,971.95
2024-03-26T09:48:55.790Z,971.96
2024-03-26T09:49:55.768Z,971.92
2024-03-26T09:50:55.890Z,971.90
2024-03-26T09:51:55.744Z,971.92
2024-03-26T09:52:55.741Z,971.88
2024-03-26T09:53:55.749Z,971.90
2024-03-26T09:54:55.719Z,971.88
2024-03-26T09:55:55.720Z,971.89
2024-03-26T09:56:55.691Z,971.80
2024-03-26T09:57:55.747Z,971.76
2024-03-26T09:58:55.674Z,971.74
2024-03-26T09:59:55.669Z,971.77
2024-03-26T10:00:55.686Z,971.73
2024-03-26T10:01:55.663Z,971.83
2024-03-26T10:02:55.661Z,971.75
2024-03-26T10:03:55.639Z,971.80
2024-03-26T10:04:55.619Z,971.82
2024-03-26T10:05:55.615Z,971.87
2024-03-26T10:06:55.591Z,971.85
2024-03-26T10:07:55.588Z,971.83
2024-03-26T10:08:55.607Z,971.86
2024-03-26T10:09:55.571Z,971.83
2024-03-26T10:10:55.559Z,971.89
2024-03-26T10:11:55.575Z,971.84
2024-03-26T10:12:55.540Z,971.85
2024-03-26T10:13:55.532Z,971.83
2024-03-26T10:14:55.534Z,971.87
2024-03-26T10:15:55.552Z,971.91
2024-03-26T10:16:55.498Z,971.80
2024-03-26T10:17:55.498Z,971.76
2024-03-26T10:18:55.476Z,971.80
2024-03-26T10:19:55.446Z,971.77
2024-03-26T10:20:55.677Z,971.77
2024-03-26T10:21:55.465Z,971.78
2024-03-26T10:22:55.426Z,971.72
2024-03-26T10:23:55.423Z,971.77
2024-03-26T10:24:55.414Z,971.76
2024-03-26T10:25:55.403Z,971.72
2024-03-26T10:26:55.403Z,971.72
2024-03-26T10:27:55.464Z,971.74
2024-03-26T10:28:55.371Z,971.70
2024-03-26T10:29:55.344Z,971.68
2024-03-26T10:30:55.350Z,971.69
2024-03-26T10:31:55.352Z,971.70
2024-03-26T10:32:55.342Z,971.70
2024-03-26T10:33:55.354Z,971.66
2024-03-26T10:34:55.324Z,971.60
2024-03-26T10:35:55.291Z,971.63
2024-03-26T10:36:55.312Z,971.60
2024-03-26T10:38:01.466Z,971.68
2024-03-26T10:39:02.879Z,971.65
2024-03-26T10:39:57.308Z,971.64
2024-03-26T10:40:58.415Z,971.65
2024-03-26T10:41:56.240Z,971.62
2024-03-26T10:42:55.238Z,971.56
2024-03-26T10:43:55.213Z,971.54
2024-03-26T10:44:55.270Z,971.53
2024-03-26T10:46:03.406Z,971.52
2024-03-26T10:46:56.206Z,971.43
2024-03-26T10:47:55.193Z,971.48
2024-03-26T10:49:01.258Z,971.42
2024-03-26T10:49:56.171Z,971.44
2024-03-26T10:50:55.138Z,971.31
2024-03-26T10:51:55.138Z,971.32
2024-03-26T10:52:55.134Z,971.32
2024-03-26T10:53:55.132Z,971.24
2024-03-26T10:54:55.113Z,971.27
2024-03-26T10:55:55.107Z,971.26
2024-03-26T10:56:55.099Z,971.36
2024-03-26T10:57:55.088Z,971.29
2024-03-26T10:58:55.087Z,971.21
2024-03-26T10:59:55.051Z,971.40
2024-03-26T11:00:55.111Z,971.28
2024-03-26T11:01:55.065Z,971.21
2024-03-26T11:02:55.043Z,971.34
2024-03-26T11:03:55.016Z,971.28
2024-03-26T11:04:55.002Z,971.21
2024-03-26T11:05:54.992Z,971.27
2024-03-26T11:06:54.973Z,971.21
2024-03-26T11:07:54.969Z,971.13
2024-03-26T11:08:54.984Z,971.18
2024-03-26T11:09:54.977Z,971.10
2024-03-26T11:10:56.043Z,971.12
2024-03-26T11:11:54.922Z,971.07
2024-03-26T11:12:54.934Z,971.05
2024-03-26T11:13:54.904Z,971.07
2024-03-26T11:14:54.911Z,971.06
2024-03-26T11:15:54.906Z,971.02
2024-03-26T11:16:54.883Z,970.96
2024-03-26T11:17:54.834Z,970.96
2024-03-26T11:18:54.846Z,970.93
2024-03-26T11:19:54.838Z,970.90
2024-03-26T11:20:54.836Z,970.97
2024-03-26T11:21:54.828Z,970.92
2024-03-26T11:22:54.811Z,970.91
2024-03-26T11:23:54.791Z,970.88
2024-03-26T11:24:54.757Z,970.89
2024-03-26T11:25:54.758Z,970.91
2024-03-26T11:26:54.743Z,970.88
2024-03-26T11:27:54.759Z,970.96
2024-03-26T11:28:54.754Z,970.91
2024-03-26T11:29:54.722Z,970.87
2024-03-26T11:30:54.696Z,970.88
2024-03-26T11:31:54.751Z,970.88
2024-03-26T11:32:54.688Z,970.86
2024-03-26T11:33:54.704Z,970.90
2024-03-26T11:34:54.650Z,970.84
2024-03-26T11:35:54.644Z,970.86
2024-03-26T11:36:54.639Z,970.83
2024-03-26T11:37:54.853Z,970.92
2024-03-26T11:38:54.645Z,970.94
2024-03-26T11:39:54.602Z,970.96
2024-03-26T11:40:54.621Z,970.85
2024-03-26T11:41:54.592Z,970.85
2024-03-26T11:42:54.636Z,970.85
2024-03-26T11:43:54.560Z,970.88
2024-03-26T11:44:54.540Z,970.94
2024-03-26T11:45:54.614Z,970.89
2024-03-26T11:46:54.535Z,970.87
2024-03-26T11:47:54.574Z,970.87
2024-03-26T11:48:54.517Z,970.90
2024-03-26T11:49:54.463Z,970.87
2024-03-26T11:50:55.501Z,970.81
2024-03-26T11:51:54.505Z,970.77
2024-03-26T11:52:54.435Z,970.73
2024-03-26T11:53:54.457Z,970.73
2024-03-26T11:54:54.434Z,970.68
2024-03-26T11:55:54.416Z,970.74
2024-03-26T11:56:55.404Z,970.69
2024-03-26T11:57:54.411Z,970.71
2024-03-26T11:58:54.395Z,970.71
2024-03-26T11:59:54.404Z,970.68
2024-03-26T12:00:54.392Z,970.64
2024-03-26T12:01:54.349Z,970.68
2024-03-26T12:02:54.315Z,970.61
2024-03-26T12:03:54.384Z,970.58
2024-03-26T12:04:54.324Z,970.54
2024-03-26T12:05:54.295Z,970.56
2024-03-26T12:06:54.332Z,970.51
2024-03-26T12:07:54.290Z,970.52
2024-03-26T12:08:54.290Z,970.50
2024-03-26T12:09:54.240Z,970.44
2024-03-26T12:10:54.283Z,970.45
2024-03-26T12:11:54.206Z,970.40
2024-03-26T12:12:54.264Z,970.50
2024-03-26T12:13:54.222Z,970.44
2024-03-26T12:14:54.225Z,970.49
2024-03-26T12:15:54.178Z,970.37
2024-03-26T12:16:54.248Z,970.37
2024-03-26T12:17:54.188Z,970.40
2024-03-26T12:18:54.142Z,970.36
2024-03-26T12:19:54.158Z,970.44
2024-03-26T12:20:54.099Z,970.31
2024-03-26T12:21:54.126Z,970.28
2024-03-26T12:22:54.095Z,970.28
2024-03-26T12:23:55.071Z,970.26
2024-03-26T12:24:54.092Z,970.23
2024-03-26T12:25:54.090Z,970.16
2024-03-26T12:26:54.075Z,970.14
2024-03-26T12:27:54.063Z,970.14